createdAt,value
2019-06-27T00:01:51.967Z,101158.48
2019-06-27T00:04:55.760Z,101160.72
2019-06-27T00:07:59.121Z,101166.54
2019-06-27T00:11:02.531Z,101164.88
2019-06-27T00:14:06.159Z,101157.53
2019-06-27T00:17:09.763Z,101166.19
2019-06-27T00:20:13.204Z,101167.15
2019-06-27T00:23:17.005Z,101170.47
2019-06-27T00:26:20.277Z,101167.44
2019-06-27T00:29:23.235Z,101171.59
2019-06-27T00:32:26.173Z,101168.70
2019-06-27T00:35:29.143Z,101167.62
2019-06-27T00:38:32.111Z,101175.17
2019-06-27T00:41:35.186Z,101178.76
2019-06-27T00:44:38.148Z,101180.66
2019-06-27T00:47:41.097Z,101186.78
2019-06-27T00:50:44.654Z,101182.91
2019-06-27T00:53:47.977Z,101178.35
2019-06-27T00:56:50.939Z,101188.70
2019-06-27T00:59:54.664Z,101181.91
2019-06-27T01:02:57.624Z,101189.09
2019-06-27T01:06:00.997Z,101187.83
2019-06-27T01:13:27.346Z,101184.67
2019-06-27T01:16:30.759Z,101181.82
2019-06-27T01:19:33.824Z,101191.58
2019-06-27T01:22:36.746Z,101178.08
2019-06-27T01:25:39.719Z,101187.27
2019-06-27T01:28:43.325Z,101195.45
2019-06-27T01:31:46.837Z,101188.14
2019-06-27T01:34:50.006Z,101181.46
2019-06-27T01:37:53.301Z,101176.34
2019-06-27T01:40:56.275Z,101179.97
2019-06-27T01:43:59.257Z,101170.59
2019-06-27T01:47:03.393Z,101172.84
2019-06-27T01:50:06.471Z,101170.23
2019-06-27T01:53:09.700Z,101176.41
2019-06-27T01:56:12.652Z,101178.47
2019-06-27T01:59:15.920Z,101174.84
2019-06-27T02:02:20.267Z,101178.98
2019-06-27T02:05:23.355Z,101173.92
2019-06-27T02:08:26.670Z,101173.14
2019-06-27T02:11:29.961Z,101166.57
2019-06-27T02:14:33.668Z,101175.41
2019-06-27T02:17:37.033Z,101180.48
2019-06-27T02:20:40.390Z,101180.34
2019-06-27T02:23:43.356Z,101183.04
2019-06-27T02:26:46.308Z,101195.77
2019-06-27T02:29:49.287Z,101186.56
2019-06-27T02:32:52.686Z,101196.98
2019-06-27T02:35:55.663Z,101183.66
2019-06-27T02:38:58.610Z,101191.95
2019-06-27T02:42:01.542Z,101200.33
2019-06-27T02:45:05.400Z,101195.95
2019-06-27T02:48:08.693Z,101207.02
2019-06-27T02:51:11.718Z,101205.69
2019-06-27T02:54:15.364Z,101201.91
2019-06-27T02:57:18.622Z,101202.47
2019-06-27T03:00:21.800Z,101206.58
2019-06-27T03:03:24.718Z,101207.02
2019-06-27T03:06:27.710Z,101201.98
2019-06-27T03:09:31.075Z,101206.91
2019-06-27T03:12:34.483Z,101210.89
2019-06-27T03:15:37.426Z,101210.00
2019-06-27T03:18:41.019Z,101217.52
2019-06-27T03:21:43.980Z,101217.97
2019-06-27T03:24:46.911Z,101217.98
2019-06-27T03:27:50.950Z,101212.45
2019-06-27T03:30:54.223Z,101212.02
2019-06-27T03:33:57.806Z,101212.91
2019-06-27T03:37:00.767Z,101215.73
2019-06-27T03:40:04.797Z,101210.74
2019-06-27T03:43:07.749Z,101206.50
2019-06-27T03:46:10.716Z,101213.17
2019-06-27T03:49:14.342Z,101222.58
2019-06-27T03:52:17.613Z,101222.49
2019-06-27T03:55:21.006Z,101222.77
2019-06-27T03:58:23.956Z,101227.38
2019-06-27T04:01:27.541Z,101226.11
2019-06-27T04:04:30.824Z,101228.48
2019-06-27T04:07:33.927Z,101234.36
2019-06-27T04:10:37.138Z,101234.31
2019-06-27T04:13:40.114Z,101230.56
2019-06-27T04:16:43.077Z,101231.25
2019-06-27T04:19:46.066Z,101227.60
2019-06-27T04:22:49.633Z,101221.59
2019-06-27T04:25:52.883Z,101228.00
2019-06-27T04:28:56.448Z,101229.39
2019-06-27T04:32:00.023Z,101231.03
2019-06-27T04:35:03.446Z,101238.77
2019-06-27T04:38:06.409Z,101239.50
2019-06-27T04:41:09.990Z,101243.41
2019-06-27T04:44:13.262Z,101244.60
2019-06-27T04:47:16.210Z,101241.42
2019-06-27T04:50:19.171Z,101239.50
2019-06-27T04:53:22.481Z,101240.95
2019-06-27T04:56:25.911Z,101237.45
2019-06-27T04:59:29.189Z,101232.60
2019-06-27T05:02:32.142Z,101228.98
2019-06-27T05:05:35.092Z,101230.70
2019-06-27T05:08:38.453Z,101238.80
2019-06-27T05:11:41.421Z,101230.56
2019-06-27T05:14:44.408Z,101232.15
2019-06-27T05:17:47.466Z,101234.31
2019-06-27T05:20:50.551Z,101234.10
2019-06-27T05:23:53.526Z,101245.41
2019-06-27T05:26:57.530Z,101248.40
2019-06-27T05:30:09.653Z,101246.97
2019-06-27T05:33:05.852Z,101248.95
2019-06-27T05:36:08.798Z,101248.44
2019-06-27T05:39:11.886Z,101251.91
2019-06-27T05:42:14.794Z,101257.16
2019-06-27T05:45:18.479Z,101258.72
2019-06-27T05:48:21.797Z,101255.84
2019-06-27T05:51:24.767Z,101254.49
2019-06-27T05:54:28.384Z,101249.93
2019-06-27T05:57:31.692Z,101256.67
2019-06-27T06:00:35.141Z,101257.30
2019-06-27T06:03:38.391Z,101250.77
2019-06-27T06:06:41.399Z,101258.17
2019-06-27T06:09:44.807Z,101256.67
2019-06-27T06:12:47.787Z,101259.53
2019-06-27T06:15:51.095Z,101262.54
2019-06-27T06:18:54.436Z,101268.11
2019-06-27T06:21:58.039Z,101270.55
2019-06-27T06:25:01.027Z,101273.67
2019-06-27T06:28:04.559Z,101280.32
2019-06-27T06:31:07.512Z,101280.50
2019-06-27T06:34:10.466Z,101282.88
2019-06-27T06:37:13.427Z,101283.81
2019-06-27T06:40:16.902Z,101288.27
2019-06-27T06:43:19.872Z,101286.91
2019-06-27T06:46:22.827Z,101292.31
2019-06-27T06:49:26.208Z,101293.97
2019-06-27T06:52:29.191Z,101297.91
2019-06-27T06:55:32.777Z,101297.32
2019-06-27T06:58:35.764Z,101295.25
2019-06-27T07:01:39.612Z,101301.50
2019-06-27T07:04:42.680Z,101302.78
2019-06-27T07:07:45.649Z,101303.75
2019-06-27T07:10:49.319Z,101306.02
2019-06-27T07:13:52.950Z,101315.25
2019-06-27T07:16:55.908Z,101311.95
2019-06-27T07:19:59.217Z,101304.55
2019-06-27T07:23:02.715Z,101298.24
2019-06-27T07:26:06.052Z,101302.73
2019-06-27T07:29:09.019Z,101299.84
2019-06-27T07:32:11.952Z,101303.56
2019-06-27T07:35:15.344Z,101312.66
2019-06-27T07:38:18.287Z,101305.76
2019-06-27T07:41:21.815Z,101304.55
2019-06-27T07:44:25.191Z,101303.94
2019-06-27T07:47:28.387Z,101302.95
2019-06-27T07:50:31.324Z,101307.27
2019-06-27T07:53:34.576Z,101299.24
2019-06-27T07:56:37.528Z,101305.70
2019-06-27T07:59:40.946Z,101300.48
2019-06-27T08:02:44.283Z,101307.73
2019-06-27T08:05:47.532Z,101304.88
2019-06-27T08:08:51.585Z,101300.75
2019-06-27T08:11:54.679Z,101291.58
2019-06-27T08:14:58.068Z,101289.17
2019-06-27T08:18:01.400Z,101293.28
2019-06-27T08:21:06.084Z,101293.11
2019-06-27T08:24:09.381Z,101301.12
2019-06-27T08:27:12.306Z,101291.53
2019-06-27T08:30:15.378Z,101288.95
2019-06-27T08:33:18.356Z,101279.98
2019-06-27T08:36:21.642Z,101278.73
2019-06-27T08:39:24.590Z,101280.35
2019-06-27T08:42:27.964Z,101286.28
2019-06-27T08:45:30.895Z,101276.75
2019-06-27T08:48:34.208Z,101272.84
2019-06-27T08:51:38.194Z,101275.82
2019-06-27T08:54:41.522Z,101272.55
2019-06-27T08:57:45.052Z,101277.83
2019-06-27T09:00:48.069Z,101270.41
2019-06-27T09:03:51.013Z,101278.50
2019-06-27T09:06:54.289Z,101283.12
2019-06-27T09:09:57.539Z,101277.03
2019-06-27T09:13:00.815Z,101275.19
2019-06-27T09:16:03.772Z,101276.20
2019-06-27T09:19:06.817Z,101269.08
2019-06-27T09:22:10.165Z,101275.92
2019-06-27T09:25:13.650Z,101268.56
2019-06-27T09:28:16.885Z,101273.98
2019-06-27T09:31:20.865Z,101280.33
2019-06-27T09:34:23.770Z,101279.40
2019-06-27T09:37:27.037Z,101281.90
2019-06-27T09:40:30.444Z,101286.95
2019-06-27T09:43:33.415Z,101276.38
2019-06-27T09:46:36.429Z,101277.56
2019-06-27T09:49:39.716Z,101278.73
2019-06-27T09:52:42.662Z,101267.56
2019-06-27T09:55:47.537Z,101271.04
2019-06-27T09:58:50.915Z,101269.09
2019-06-27T10:01:54.170Z,101265.88
2019-06-27T10:04:57.131Z,101273.78
2019-06-27T10:08:00.815Z,101273.53
2019-06-27T10:11:03.826Z,101264.44
2019-06-27T10:14:08.663Z,101268.40
2019-06-27T10:17:11.610Z,101265.80
2019-06-27T10:20:15.765Z,101266.91
2019-06-27T10:23:18.687Z,101266.45
2019-06-27T10:26:22.330Z,101265.61
2019-06-27T10:29:25.651Z,101267.27
2019-06-27T10:32:28.596Z,101266.81
2019-06-27T10:35:31.953Z,101259.47
2019-06-27T10:38:35.325Z,101259.18
2019-06-27T10:41:38.278Z,101250.92
2019-06-27T10:44:42.370Z,101256.23
2019-06-27T10:47:45.607Z,101252.42
2019-06-27T10:50:48.563Z,101264.88
2019-06-27T10:53:51.929Z,101260.22
2019-06-27T10:56:54.906Z,101261.59
2019-06-27T10:59:58.277Z,101261.53
2019-06-27T11:03:14.300Z,101251.91
2019-06-27T11:06:07.102Z,101262.55
2019-06-27T11:09:13.493Z,101257.31
2019-06-27T11:12:15.345Z,101258.91
2019-06-27T11:15:18.414Z,101253.70
2019-06-27T11:18:21.706Z,101249.12
2019-06-27T11:21:24.697Z,101243.98
2019-06-27T11:24:28.032Z,101241.42
2019-06-27T11:27:30.974Z,101234.89
2019-06-27T11:30:33.943Z,101239.66
2019-06-27T11:33:37.484Z,101232.77
2019-06-27T11:36:40.803Z,101233.39
2019-06-27T11:39:44.097Z,101236.25
2019-06-27T11:42:47.696Z,101228.84
2019-06-27T11:45:51.696Z,101225.84
2019-06-27T11:48:55.062Z,101229.03
2019-06-27T11:51:57.993Z,101226.22
2019-06-27T11:55:01.446Z,101214.31
2019-06-27T11:58:04.586Z,101214.45
2019-06-27T12:01:07.532Z,101218.27
2019-06-27T12:04:11.121Z,101207.14
2019-06-27T12:07:14.051Z,101207.08
2019-06-27T12:10:17.929Z,101208.95
2019-06-27T12:13:20.970Z,101212.16
2019-06-27T12:16:24.056Z,101205.63
2019-06-27T12:19:27.015Z,101205.06
2019-06-27T12:22:30.214Z,101203.52
2019-06-27T12:25:33.437Z,101202.30
2019-06-27T12:28:36.379Z,101198.43
2019-06-27T12:31:39.335Z,101187.09
2019-06-27T12:34:42.247Z,101192.91
2019-06-27T12:37:45.198Z,101200.48
2019-06-27T12:40:48.152Z,101185.00
2019-06-27T12:43:51.093Z,101186.86
2019-06-27T12:46:54.432Z,101185.48
2019-06-27T12:50:02.675Z,101180.50
2019-06-27T12:53:03.574Z,101189.68
2019-06-27T12:56:06.898Z,101181.88
2019-06-27T12:59:09.943Z,101181.98
2019-06-27T13:02:13.422Z,101172.05
2019-06-27T13:05:20.288Z,101172.17
2019-06-27T13:08:23.732Z,101167.58
2019-06-27T13:11:27.095Z,101170.67
2019-06-27T13:14:30.300Z,101163.44
2019-06-27T13:17:33.572Z,101160.13
2019-06-27T13:20:37.613Z,101163.10
2019-06-27T13:23:41.296Z,101168.13
2019-06-27T13:26:44.574Z,101162.47
2019-06-27T13:29:47.503Z,101154.99
2019-06-27T13:32:50.445Z,101152.72
2019-06-27T13:35:53.394Z,101149.61
2019-06-27T13:38:56.599Z,101146.34
2019-06-27T13:41:59.990Z,101137.06
2019-06-27T13:45:03.585Z,101141.23
2019-06-27T13:48:06.923Z,101134.38
2019-06-27T13:51:10.486Z,101131.64
2019-06-27T13:54:13.582Z,101125.14
2019-06-27T13:57:17.421Z,101126.36
2019-06-27T14:00:35.504Z,101126.58
2019-06-27T14:03:48.615Z,101123.06
2019-06-27T14:06:43.761Z,101120.89
2019-06-27T14:09:53.822Z,101115.81
2019-06-27T14:12:52.130Z,101115.87
2019-06-27T14:15:55.416Z,101106.44
2019-06-27T14:18:58.533Z,101111.73
2019-06-27T14:22:01.572Z,101107.28
2019-06-27T14:25:04.871Z,101107.97
2019-06-27T14:28:07.926Z,101112.29
2019-06-27T14:31:10.964Z,101105.64
2019-06-27T14:34:14.274Z,101111.91
2019-06-27T14:37:17.200Z,101109.84
2019-06-27T14:40:21.178Z,101105.48
2019-06-27T14:43:24.097Z,101104.50
2019-06-27T14:46:27.047Z,101103.38
2019-06-27T14:49:30.296Z,101102.38
2019-06-27T14:52:35.104Z,101110.05
2019-06-27T14:55:38.249Z,101106.03
2019-06-27T14:58:41.493Z,101095.07
2019-06-27T15:01:44.614Z,101101.72
2019-06-27T15:04:47.587Z,101097.28
2019-06-27T15:07:50.542Z,101094.69
2019-06-27T15:10:53.894Z,101089.10
2019-06-27T15:13:58.549Z,101088.48
2019-06-27T15:17:01.819Z,101083.41
2019-06-27T15:20:05.210Z,101079.31
2019-06-27T15:23:08.164Z,101077.98
2019-06-27T15:26:13.434Z,101081.43
2019-06-27T15:29:16.703Z,101077.50
2019-06-27T15:32:21.165Z,101073.77
2019-06-27T15:35:24.109Z,101080.22
2019-06-27T15:38:27.037Z,101085.81
2019-06-27T15:41:29.954Z,101078.65
2019-06-27T15:44:32.902Z,101072.72
2019-06-27T15:47:36.552Z,101070.87
2019-06-27T15:50:39.781Z,101072.38
2019-06-27T15:53:42.789Z,101066.18
2019-06-27T15:56:45.788Z,101066.80
2019-06-27T15:59:48.749Z,101059.63
2019-06-27T16:02:52.142Z,101063.94
2019-06-27T16:06:08.599Z,101057.63
2019-06-27T16:09:00.361Z,101063.70
2019-06-27T16:12:03.292Z,101058.25
2019-06-27T16:15:06.919Z,101054.34
2019-06-27T16:18:09.884Z,101048.41
2019-06-27T16:21:12.859Z,101050.22
2019-06-27T16:24:16.150Z,101042.78
2019-06-27T16:27:19.082Z,101040.67
2019-06-27T16:30:22.425Z,101042.56
2019-06-27T16:33:26.382Z,101042.78
2019-06-27T16:36:29.632Z,101041.33
2019-06-27T16:39:32.930Z,101040.04
2019-06-27T16:42:36.394Z,101042.98
2019-06-27T16:45:40.744Z,101048.72
2019-06-27T16:48:44.210Z,101040.54
2019-06-27T16:51:47.977Z,101045.00
2019-06-27T16:54:50.910Z,101038.80
2019-06-27T16:57:53.878Z,101041.40
2019-06-27T17:00:56.815Z,101038.39
2019-06-27T17:03:59.840Z,101045.75
2019-06-27T17:07:02.813Z,101046.98
2019-06-27T17:10:06.901Z,101045.08
2019-06-27T17:13:10.161Z,101051.44
2019-06-27T17:16:13.148Z,101054.97
2019-06-27T17:19:16.049Z,101051.45
2019-06-27T17:22:19.312Z,101050.89
2019-06-27T17:25:22.337Z,101050.98
2019-06-27T17:28:25.576Z,101058.19
2019-06-27T17:31:28.536Z,101051.63
2019-06-27T17:34:31.477Z,101050.14
2019-06-27T17:37:34.418Z,101047.11
2019-06-27T17:40:37.735Z,101054.53
2019-06-27T17:43:41.644Z,101052.42
2019-06-27T17:46:46.542Z,101045.30
2019-06-27T17:49:49.826Z,101048.52
2019-06-27T17:52:53.681Z,101048.84
2019-06-27T17:55:57.636Z,101050.23
2019-06-27T17:59:00.973Z,101050.97
2019-06-27T18:02:04.451Z,101052.13
2019-06-27T18:05:07.709Z,101052.19
2019-06-27T18:08:13.605Z,101053.45
2019-06-27T18:11:16.692Z,101058.25
2019-06-27T18:14:19.885Z,101062.47
2019-06-27T18:17:33.101Z,101062.62
2019-06-27T18:20:27.921Z,101064.55
2019-06-27T18:23:31.063Z,101067.22
2019-06-27T18:26:34.351Z,101069.06
2019-06-27T18:29:37.657Z,101063.33
2019-06-27T18:32:41.062Z,101066.66
2019-06-27T18:35:44.186Z,101063.22
2019-06-27T18:38:47.304Z,101059.53
2019-06-27T18:41:50.322Z,101059.95
2019-06-27T18:44:53.875Z,101059.31
2019-06-27T18:47:56.914Z,101062.32
2019-06-27T18:51:00.030Z,101066.81
2019-06-27T18:54:03.637Z,101063.33
2019-06-27T18:57:06.659Z,101053.19
2019-06-27T19:00:09.919Z,101060.65
2019-06-27T19:03:12.987Z,101062.88
2019-06-27T19:06:16.282Z,101054.03
2019-06-27T19:09:19.705Z,101051.80
2019-06-27T19:12:23.159Z,101053.93
2019-06-27T19:15:26.584Z,101061.91
2019-06-27T19:18:49.305Z,101065.19
2019-06-27T19:22:15.104Z,101063.06
2019-06-27T19:25:28.963Z,101062.64
2019-06-27T19:28:32.623Z,101063.14
2019-06-27T19:31:36.081Z,101068.75
2019-06-27T19:34:39.025Z,101071.30
2019-06-27T19:37:42.796Z,101077.04
2019-06-27T19:40:45.723Z,101074.63
2019-06-27T19:43:57.122Z,101075.89
2019-06-27T19:47:00.520Z,101081.57
2019-06-27T19:50:05.134Z,101088.00
2019-06-27T19:53:08.719Z,101089.16
2019-06-27T19:56:11.751Z,101088.77
2019-06-27T19:59:16.817Z,101083.39
2019-06-27T20:02:20.098Z,101101.48
2019-06-27T20:05:23.090Z,101101.55
2019-06-27T20:08:26.027Z,101105.91
2019-06-27T20:11:29.083Z,101105.64
2019-06-27T20:14:32.178Z,101108.74
2019-06-27T20:17:35.466Z,101115.81
2019-06-27T20:20:38.999Z,101118.49
2019-06-27T20:23:42.009Z,101116.17
2019-06-27T20:26:44.980Z,101112.41
2019-06-27T20:29:48.025Z,101123.42
2019-06-27T20:32:51.788Z,101115.21
2019-06-27T20:35:54.845Z,101125.77
2019-06-27T20:38:58.253Z,101125.88
2019-06-27T20:42:01.282Z,101129.92
2019-06-27T20:54:01.633Z,101126.72
2019-06-27T20:57:05.800Z,101087.72
2019-06-27T21:00:12.223Z,101123.36
2019-06-27T21:03:16.126Z,101126.05
2019-06-27T21:06:32.179Z,101124.08
2019-06-27T21:09:47.826Z,101123.20
2019-06-27T21:13:04.202Z,101128.73
2019-06-27T21:16:16.432Z,101126.94
2019-06-27T21:19:20.206Z,101126.86
2019-06-27T21:22:32.591Z,101124.83
2019-06-27T21:26:01.914Z,101125.17
2019-06-27T21:29:24.192Z,101130.67
2019-06-27T21:32:34.171Z,101133.57
2019-06-27T21:35:54.033Z,101134.36
2019-06-27T21:39:07.493Z,101133.77
2019-06-27T21:42:04.286Z,101134.13
2019-06-27T21:45:09.113Z,101131.23
2019-06-27T21:48:25.293Z,101134.94
2019-06-27T21:51:49.091Z,101128.27
2019-06-27T21:56:14.640Z,101130.41
2019-06-27T22:03:46.233Z,101134.02
2019-06-27T22:06:54.170Z,101133.61
2019-06-27T22:11:04.116Z,101131.20
2019-06-27T22:14:07.306Z,101129.72
2019-06-27T22:17:12.490Z,101128.73
2019-06-27T22:20:17.583Z,101128.04
2019-06-27T22:23:21.103Z,101133.30
2019-06-27T22:26:24.335Z,101131.66
2019-06-27T22:29:27.800Z,101135.82
2019-06-27T22:32:31.231Z,101132.05
2019-06-27T22:35:35.116Z,101132.30
2019-06-27T22:39:00.204Z,101138.72
2019-06-27T22:42:24.598Z,101139.80
2019-06-27T22:45:50.500Z,101134.26
2019-06-27T22:49:03.699Z,101130.67
2019-06-27T22:52:49.955Z,101139.27
2019-06-27T22:56:41.955Z,101134.41
2019-06-27T23:14:49.719Z,101134.03
2019-06-27T23:18:18.050Z,101130.20
2019-06-27T23:21:32.853Z,101130.68
2019-06-27T23:24:58.494Z,101129.55
2019-06-27T23:28:09.602Z,101127.79
2019-06-27T23:31:24.163Z,101135.41
2019-06-27T23:34:29.968Z,101131.44
2019-06-27T23:37:33.862Z,101133.34
2019-06-27T23:40:37.844Z,101129.61
2019-06-27T23:43:44.484Z,101129.47
2019-06-27T23:46:48.163Z,101124.02
2019-06-27T23:49:52.526Z,101124.20
2019-06-27T23:53:00.132Z,101112.64
2019-06-27T23:56:10.125Z,101104.55
2019-06-27T23:59:14.051Z,101097.20
